Pagrindinis puslapis
METAR-TAF:

METAR-TAF

Oro uostai :

Dawadmi, Saudo Arabija

platuma: 24-26-59N, ilguma: 044-07-16E, Aukštis: 922 m

Dabartinis oras

Ataskaita buvo paskelbta 2 valandos ir 4 minutes, ne 16:00 UTC
Vėjas 10 kt iš Šiaurės
Temperatūra 12°C
Drėgmė 44%
Slėgis 1017 hPa
Matomumas 10 km arba daugiau
nėra debesų žemiau 1500 m ir nėra kamuolinių lietaus debesų

METAR: OEDM 221600Z 36010KT CAVOK 12/00 Q1017

Laikas: 21:04 (18:04 UTC)

Prognozė

Ataskaita buvo paskelbta 13 valandos ir 4 minutes, ne 05:00 UTC
Prognozė galioja nuo 22 metu 06 UTC su 22 metu 20 UTC
Vėjas 10 kt iš Vakarų su gūsio iki 20 kt
Matomumas: 8000 m
Mažai debesys ne aukštis 4000 ft
Laikinai
nuo 22 metu 06 UTC su 22 metu 16 UTC
Matomumas: 3000 m
dulkės, Dulkes pustymas

TAF: OEDM 220500Z 2206/2220 27010G20KT 8000 FEW040 TEMPO 2206/2216 3000 DU BLDU

Orai ataskaitas ir orų prognozės (METAR, TAF).

turimą stotys yra geltonos ir raudonos taškus žemėlapyje.

Perkelti pele per norėdami pamatyti stoties vardą.

Tada spustelėkite, norėdami matyti oro stebėjimo ir prognozės.

Norėdami pakeisti žemėlapį: spustelėkite ant žalios mygtukų su juodo kryžiaus žemyn,; žalią mygtuką su brūkšneliu, jei norite nutolinti; arba žalių rodyklių gretimoms žemėlapius.


METAR-TAF: